NSTU Airport Information

Runway Information
Runway 05 Length 10000 ft width 150 ft
Elevation 30 ft Threshold 1000 ft Heading 60
Runway 23 Length 10000 ft Width 150 ft
Elevation 9 ft Threshold 800 ft Heading 240
Runway 08 Length 3800 ft width 100 ft
Elevation 6 ft Threshold 1600 ft Heading 90
Runway 26 Length 3800 ft Width 100 ft
Elevation 5 ft Threshold 0 ft Heading 270
Airport Frequencies
Type A/D Name FALEOLO AP Frequency 126.9 MHZ
Type CTAF Name CTAF Frequency 122.9 MHZ
Type UNIC Name UNICOM Frequency 118.3 MHZ
Airport Navaids
Type NDB Name Logotala Hill Frequency 242 KHZ
Type VORTAC Name Pago Pago Frequency 112500 KHZ
Type NDB Name Pago Pago Frequency 403 KHZ
Airport Weather Information & NOTAM
ADDS - METARS form results

(1849 UTC 28 January 2020)
Data provider http://aviationweather.gov/metar/data/
 
Forecast for: NSTU (PAGO PAGO , WS)
Text: NSTU 281740Z 2818/2918 VRB04KT P6SM VCSH SCT020 SCT100
Forecast period: 1800 UTC 28 January 2020 to 1800 UTC 29 January 2020
Forecast type: FROM: standard forecast or significant change
Winds: variable direction winds at 5 MPH (4 knots; 2.1 m/s)
Visibility: 6 or more miles 10+ km)
Ceiling: at least 12,000 feet AGL
Clouds: scattered clouds at 2000 feet AGL
scattered clouds at 10000 feet AGL
Weather: VCSH  (showers in vicinity)